createdAt,value
2019-02-24T00:01:02.632Z,13.17
2019-02-24T00:03:32.033Z,13.20
2019-02-24T00:06:01.432Z,15.07
2019-02-24T00:08:30.778Z,14.17
2019-02-24T00:11:00.203Z,12.23
2019-02-24T00:13:29.629Z,10.70
2019-02-24T00:15:58.969Z,10.83
2019-02-24T00:18:28.295Z,12.23
2019-02-24T00:20:57.622Z,11.47
2019-02-24T00:23:26.981Z,13.77
2019-02-24T00:25:56.324Z,11.40
2019-02-24T00:28:25.707Z,11.43
2019-02-24T00:30:55.015Z,11.27
2019-02-24T00:33:24.364Z,12.07
2019-02-24T00:35:53.680Z,11.70
2019-02-24T00:38:22.998Z,9.93
2019-02-24T00:40:52.335Z,12.13
2019-02-24T00:43:21.733Z,11.13
2019-02-24T00:45:51.092Z,11.97
2019-02-24T00:48:20.437Z,10.70
2019-02-24T00:50:49.761Z,14.70
2019-02-24T00:53:19.138Z,12.27
2019-02-24T00:55:48.453Z,13.73
2019-02-24T00:58:17.891Z,11.50
2019-02-24T01:00:47.196Z,13.70
2019-02-24T01:03:16.591Z,13.63
2019-02-24T01:05:45.894Z,12.80
2019-02-24T01:08:15.283Z,13.10
2019-02-24T01:10:44.668Z,14.23
2019-02-24T01:13:14.007Z,9.77
2019-02-24T01:15:43.351Z,13.27
2019-02-24T01:18:12.832Z,11.33
2019-02-24T01:20:42.194Z,10.90
2019-02-24T01:23:11.563Z,10.57
2019-02-24T01:25:40.945Z,13.63
2019-02-24T01:28:10.308Z,11.33
2019-02-24T01:30:39.640Z,11.43
2019-02-24T01:33:09.090Z,9.80
2019-02-24T01:35:38.429Z,10.80
2019-02-24T01:38:07.757Z,10.90
2019-02-24T01:40:37.173Z,12.77
2019-02-24T01:43:06.534Z,12.03
2019-02-24T01:45:35.895Z,12.27
2019-02-24T01:48:05.208Z,10.67
2019-02-24T01:50:34.568Z,12.90
2019-02-24T01:53:03.987Z,9.70
2019-02-24T01:55:33.348Z,12.53
2019-02-24T01:58:02.645Z,12.07
2019-02-24T02:00:32.056Z,8.93
2019-02-24T02:03:01.375Z,10.60
2019-02-24T02:05:30.862Z,10.43
2019-02-24T02:08:00.186Z,12.30
2019-02-24T02:10:29.547Z,11.57
2019-02-24T02:12:58.885Z,9.60
2019-02-24T02:15:28.263Z,10.07
2019-02-24T02:17:57.590Z,10.43
2019-02-24T02:20:26.947Z,9.33
2019-02-24T02:22:56.324Z,11.43
2019-02-24T02:25:25.791Z,10.50
2019-02-24T02:27:55.123Z,12.13
2019-02-24T02:30:24.476Z,15.50
2019-02-24T02:32:53.807Z,12.90
2019-02-24T02:35:23.538Z,9.30
2019-02-24T02:37:52.864Z,9.10
2019-02-24T02:40:22.277Z,11.70
2019-02-24T02:42:52.128Z,9.83
2019-02-24T02:45:21.491Z,10.60
2019-02-24T02:47:50.883Z,10.23
2019-02-24T02:50:20.164Z,8.67
2019-02-24T02:52:49.605Z,9.40
2019-02-24T02:55:19.011Z,9.90
2019-02-24T02:57:48.346Z,8.27
2019-02-24T03:00:29.548Z,10.37
2019-02-24T03:02:58.848Z,9.67
2019-02-24T03:05:28.257Z,9.97
2019-02-24T03:08:08.981Z,10.73
2019-02-24T03:10:38.289Z,10.23
2019-02-24T03:13:07.623Z,9.23
2019-02-24T03:15:36.929Z,8.13
2019-02-24T03:18:06.257Z,8.50
2019-02-24T03:20:35.619Z,8.70
2019-02-24T03:23:04.941Z,8.87
2019-02-24T03:25:34.305Z,9.70
2019-02-24T03:28:03.695Z,10.50
2019-02-24T03:30:33.033Z,7.80
2019-02-24T03:33:02.434Z,10.60
2019-02-24T03:35:31.823Z,11.57
2019-02-24T03:38:01.158Z,8.30
2019-02-24T03:40:30.471Z,9.10
2019-02-24T03:42:59.800Z,11.33
2019-02-24T03:45:29.108Z,9.83
2019-02-24T03:47:58.458Z,9.27
2019-02-24T03:50:27.839Z,10.17
2019-02-24T03:52:57.198Z,8.37
2019-02-24T03:55:26.530Z,10.97
2019-02-24T03:57:55.934Z,11.13
2019-02-24T04:00:25.375Z,11.53
2019-02-24T04:02:54.742Z,10.57
2019-02-24T04:05:24.038Z,9.20
2019-02-24T04:07:53.349Z,9.27
2019-02-24T04:10:22.709Z,9.37
2019-02-24T04:12:52.096Z,9.47
2019-02-24T04:15:21.447Z,8.30
2019-02-24T04:17:50.747Z,8.30
2019-02-24T04:20:20.057Z,8.63
2019-02-24T04:22:49.343Z,9.57
2019-02-24T04:25:18.682Z,8.90
2019-02-24T04:27:48.123Z,10.03
2019-02-24T04:30:17.465Z,9.23
2019-02-24T04:32:46.787Z,11.63
2019-02-24T04:35:16.175Z,10.97
2019-02-24T04:37:45.500Z,9.03
2019-02-24T04:40:14.844Z,11.07
2019-02-24T04:42:44.182Z,8.13
2019-02-24T04:45:13.506Z,8.67
2019-02-24T04:47:42.836Z,8.93
2019-02-24T04:50:12.185Z,8.77
2019-02-24T04:52:41.497Z,11.33
2019-02-24T04:55:10.811Z,9.70
2019-02-24T04:57:40.191Z,8.77
2019-02-24T05:00:09.716Z,7.37
2019-02-24T05:02:39.020Z,10.30
2019-02-24T05:05:08.467Z,11.13
2019-02-24T05:07:37.851Z,9.20
2019-02-24T05:10:07.308Z,9.27
2019-02-24T05:12:36.676Z,9.20
2019-02-24T05:15:06.257Z,11.57
2019-02-24T05:17:35.608Z,7.57
2019-02-24T05:20:05.415Z,8.93
2019-02-24T05:22:34.741Z,10.77
2019-02-24T05:25:04.426Z,11.27
2019-02-24T05:27:33.752Z,10.63
2019-02-24T05:30:03.107Z,9.73
2019-02-24T05:32:32.531Z,8.73
2019-02-24T05:35:01.999Z,9.93
2019-02-24T05:37:31.336Z,9.27
2019-02-24T05:40:01.052Z,9.10
2019-02-24T05:42:30.382Z,9.77
2019-02-24T05:44:59.696Z,10.30
2019-02-24T05:47:29.017Z,8.47
2019-02-24T05:49:58.305Z,10.87
2019-02-24T05:52:27.628Z,12.63
2019-02-24T05:54:56.918Z,9.00
2019-02-24T05:57:26.258Z,8.97
2019-02-24T05:59:55.682Z,9.63
2019-02-24T06:02:25.106Z,7.73
2019-02-24T06:04:54.455Z,8.80
2019-02-24T06:07:23.823Z,7.13
2019-02-24T06:09:53.178Z,7.27
2019-02-24T06:12:22.508Z,7.30
2019-02-24T06:14:51.843Z,9.03
2019-02-24T06:17:21.144Z,8.13
2019-02-24T06:19:50.515Z,10.30
2019-02-24T06:22:19.823Z,7.97
2019-02-24T06:24:49.220Z,9.27
2019-02-24T06:27:18.521Z,8.20
2019-02-24T06:29:47.880Z,8.87
2019-02-24T06:32:17.194Z,10.00
2019-02-24T06:34:46.527Z,9.97
2019-02-24T06:37:15.832Z,11.07
2019-02-24T06:39:45.258Z,11.27
2019-02-24T06:42:14.598Z,9.97
2019-02-24T06:44:43.887Z,7.87
2019-02-24T06:47:13.231Z,9.17
2019-02-24T06:49:42.628Z,9.03
2019-02-24T06:52:11.944Z,7.40
2019-02-24T06:54:41.239Z,8.67
2019-02-24T06:57:10.654Z,6.87
2019-02-24T06:59:40.019Z,8.00
2019-02-24T07:02:09.637Z,8.10
2019-02-24T07:04:38.969Z,5.73
2019-02-24T07:07:08.371Z,7.37
2019-02-24T07:09:37.789Z,6.87
2019-02-24T07:12:07.171Z,7.10
2019-02-24T07:14:36.525Z,7.63
2019-02-24T07:17:05.861Z,7.17
2019-02-24T07:19:35.374Z,7.80
2019-02-24T07:22:04.872Z,6.63
2019-02-24T07:24:34.175Z,6.70
2019-02-24T07:27:03.563Z,6.80
2019-02-24T07:29:32.887Z,6.67
2019-02-24T07:32:02.273Z,8.23
2019-02-24T07:34:31.749Z,8.97
2019-02-24T07:37:01.193Z,6.10
2019-02-24T07:39:30.527Z,6.23
2019-02-24T07:41:59.886Z,6.63
2019-02-24T07:44:29.264Z,6.50
2019-02-24T07:46:58.727Z,7.60
2019-02-24T07:49:28.069Z,6.23
2019-02-24T07:51:57.464Z,7.10
2019-02-24T07:54:26.739Z,5.43
2019-02-24T07:56:56.096Z,5.60
2019-02-24T07:59:25.453Z,5.77
2019-02-24T08:01:54.806Z,5.43
2019-02-24T08:04:24.183Z,5.83
2019-02-24T08:06:53.636Z,7.60
2019-02-24T08:09:23.147Z,6.10
2019-02-24T08:11:52.434Z,6.23
2019-02-24T08:14:21.825Z,6.43
2019-02-24T08:16:51.216Z,5.83
2019-02-24T08:19:20.608Z,6.47
2019-02-24T08:21:50.043Z,4.97
2019-02-24T08:24:19.481Z,6.43
2019-02-24T08:26:48.775Z,5.80
2019-02-24T08:29:18.336Z,7.07
2019-02-24T08:31:47.761Z,4.80
2019-02-24T08:34:17.239Z,5.40
2019-02-24T08:36:46.657Z,5.80
2019-02-24T08:39:16.115Z,5.97
2019-02-24T08:41:45.447Z,7.17
2019-02-24T08:44:14.857Z,5.47
2019-02-24T08:46:44.231Z,6.37
2019-02-24T08:49:14.182Z,7.37
2019-02-24T08:51:43.516Z,7.43
2019-02-24T08:54:12.829Z,5.73
2019-02-24T08:56:42.322Z,5.60
2019-02-24T08:59:11.664Z,5.83
2019-02-24T09:01:41.148Z,5.03
2019-02-24T09:04:10.522Z,4.57
2019-02-24T09:06:39.818Z,6.33
2019-02-24T09:09:09.138Z,5.10
2019-02-24T09:11:39.220Z,6.13
2019-02-24T09:14:08.575Z,5.30
2019-02-24T09:16:37.916Z,8.07
2019-02-24T09:19:07.328Z,5.63
2019-02-24T09:21:36.721Z,4.23
2019-02-24T09:24:06.141Z,5.13
2019-02-24T09:26:35.471Z,5.23
2019-02-24T09:29:04.791Z,5.33
2019-02-24T09:31:34.145Z,5.50
2019-02-24T09:34:03.485Z,5.17
2019-02-24T09:36:32.870Z,7.70
2019-02-24T09:39:02.256Z,5.13
2019-02-24T09:41:31.646Z,4.77
2019-02-24T09:44:01.000Z,5.10
2019-02-24T09:46:30.428Z,4.80
2019-02-24T09:48:59.764Z,4.67
2019-02-24T09:51:29.140Z,4.87
2019-02-24T09:53:58.471Z,6.03
2019-02-24T09:56:27.879Z,5.10
2019-02-24T09:58:57.191Z,4.80
2019-02-24T10:01:26.639Z,6.03
2019-02-24T10:03:55.952Z,5.17
2019-02-24T10:06:25.298Z,4.40
2019-02-24T10:08:56.728Z,4.50
2019-02-24T10:11:26.075Z,5.15
2019-02-24T10:13:55.492Z,4.47
2019-02-24T10:16:24.788Z,4.67
2019-02-24T10:18:54.178Z,5.15
2019-02-24T10:21:23.613Z,4.67
2019-02-24T10:23:53.036Z,5.43
2019-02-24T10:26:22.407Z,8.40
2019-02-24T10:28:51.807Z,5.87
2019-02-24T10:31:21.152Z,10.67
2019-02-24T10:33:50.500Z,5.80
2019-02-24T10:36:19.923Z,6.67
2019-02-24T10:38:49.307Z,6.47
2019-02-24T10:41:18.641Z,5.17
2019-02-24T10:43:47.994Z,5.20
2019-02-24T10:46:17.344Z,7.03
2019-02-24T10:48:46.700Z,6.17
2019-02-24T10:51:16.089Z,4.70
2019-02-24T10:53:45.443Z,4.90
2019-02-24T10:56:14.864Z,6.30
2019-02-24T10:58:44.204Z,5.60
2019-02-24T11:01:13.596Z,4.00
2019-02-24T11:03:43.064Z,4.30
2019-02-24T11:06:12.434Z,4.03
2019-02-24T11:08:41.756Z,4.90
2019-02-24T11:11:11.138Z,4.83
2019-02-24T11:13:40.601Z,4.10
2019-02-24T11:16:10.028Z,3.93
2019-02-24T11:18:39.444Z,4.27
2019-02-24T11:21:08.824Z,4.40
2019-02-24T11:23:38.186Z,3.70
2019-02-24T11:26:07.573Z,3.97
2019-02-24T11:28:37.108Z,3.97
2019-02-24T11:31:06.708Z,5.13
2019-02-24T11:33:36.108Z,5.57
2019-02-24T11:36:05.538Z,5.93
2019-02-24T11:38:34.895Z,3.43
2019-02-24T11:41:04.306Z,6.33
2019-02-24T11:43:33.859Z,3.90
2019-02-24T11:46:03.284Z,3.73
2019-02-24T11:48:32.635Z,6.13
2019-02-24T11:51:01.975Z,4.70
2019-02-24T11:53:31.351Z,3.67
2019-02-24T11:56:00.833Z,3.43
2019-02-24T11:58:30.221Z,3.60
2019-02-24T12:00:59.586Z,3.73
2019-02-24T12:03:29.030Z,3.70
2019-02-24T12:05:58.394Z,4.10
2019-02-24T12:08:27.937Z,3.63
2019-02-24T12:10:57.287Z,5.13
2019-02-24T12:13:26.666Z,3.10
2019-02-24T12:15:56.024Z,3.77
2019-02-24T12:18:25.547Z,2.87
2019-02-24T12:20:55.036Z,3.40
2019-02-24T12:23:24.450Z,3.50
2019-02-24T12:25:53.790Z,3.20
2019-02-24T12:28:23.187Z,3.53
2019-02-24T12:30:52.626Z,4.13
2019-02-24T12:33:22.004Z,4.50
2019-02-24T12:35:51.369Z,3.90
2019-02-24T12:38:20.783Z,4.77
2019-02-24T12:40:50.190Z,2.93
2019-02-24T12:43:19.664Z,3.67
2019-02-24T12:45:48.994Z,3.20
2019-02-24T12:48:18.356Z,4.43
2019-02-24T12:50:47.702Z,4.77
2019-02-24T12:53:17.083Z,2.90
2019-02-24T12:55:46.538Z,3.10
2019-02-24T12:58:15.904Z,5.13
2019-02-24T13:00:45.322Z,3.90
2019-02-24T13:03:23.607Z,4.77
2019-02-24T13:05:45.716Z,3.13
2019-02-24T13:08:15.064Z,3.17
2019-02-24T13:10:44.480Z,2.93
2019-02-24T13:13:13.915Z,3.80
2019-02-24T13:15:43.348Z,2.97
2019-02-24T13:18:12.743Z,2.70
2019-02-24T13:20:42.090Z,3.23
2019-02-24T13:23:11.559Z,2.93
2019-02-24T13:25:40.995Z,4.77
2019-02-24T13:28:10.326Z,2.83
2019-02-24T13:30:39.659Z,3.00
2019-02-24T13:33:09.029Z,3.03
2019-02-24T13:35:40.437Z,3.93
2019-02-24T13:38:09.610Z,4.67
2019-02-24T13:40:39.487Z,3.10
2019-02-24T13:43:08.801Z,2.50
2019-02-24T13:45:38.570Z,2.90
2019-02-24T13:48:07.980Z,3.33
2019-02-24T13:50:37.354Z,3.47
2019-02-24T13:53:06.728Z,2.37
2019-02-24T13:55:36.143Z,2.57
2019-02-24T13:58:05.531Z,3.03
2019-02-24T14:00:34.923Z,3.93
2019-02-24T14:03:04.353Z,3.67
2019-02-24T14:05:33.821Z,2.57
2019-02-24T14:08:03.176Z,2.67
2019-02-24T14:10:32.756Z,2.57
2019-02-24T14:13:02.092Z,3.80
2019-02-24T14:15:31.492Z,2.63
2019-02-24T14:18:00.888Z,4.07
2019-02-24T14:20:30.203Z,4.03
2019-02-24T14:22:59.634Z,2.30
2019-02-24T14:25:29.206Z,3.40
2019-02-24T14:27:58.575Z,3.47
2019-02-24T14:30:27.909Z,2.47
2019-02-24T14:32:57.336Z,2.27
2019-02-24T14:35:26.664Z,3.43
2019-02-24T14:37:56.036Z,2.37
2019-02-24T14:40:25.356Z,2.40
2019-02-24T14:42:54.724Z,2.70
2019-02-24T14:45:24.115Z,2.33
2019-02-24T14:47:53.473Z,3.23
2019-02-24T14:50:22.779Z,4.23
2019-02-24T14:52:52.138Z,2.97
2019-02-24T14:55:21.460Z,2.83
2019-02-24T14:57:50.843Z,2.07
2019-02-24T15:00:20.195Z,2.50
2019-02-24T15:02:49.524Z,2.73
2019-02-24T15:05:20.195Z,2.93
2019-02-24T15:07:49.487Z,3.00
2019-02-24T15:10:18.870Z,3.53
2019-02-24T15:12:48.200Z,2.17
2019-02-24T15:15:18.427Z,2.93
2019-02-24T15:17:47.778Z,2.67
2019-02-24T15:20:18.412Z,3.03
2019-02-24T15:22:47.768Z,2.40
2019-02-24T15:25:17.338Z,3.27
2019-02-24T15:27:46.858Z,3.50
2019-02-24T15:30:22.132Z,3.83
2019-02-24T15:32:52.124Z,2.07
2019-02-24T15:35:21.602Z,2.87
2019-02-24T15:37:50.908Z,2.13
2019-02-24T15:40:20.237Z,3.10
2019-02-24T15:42:49.571Z,2.00
2019-02-24T15:45:19.094Z,1.90
2019-02-24T15:47:48.517Z,2.30
2019-02-24T15:50:17.901Z,2.50
2019-02-24T15:52:47.214Z,2.23
2019-02-24T15:55:16.599Z,2.40
2019-02-24T15:57:46.076Z,2.27
2019-02-24T16:00:16.536Z,3.27
2019-02-24T16:02:45.890Z,3.13
2019-02-24T16:05:15.393Z,2.93
2019-02-24T16:07:44.807Z,2.13
2019-02-24T16:10:15.612Z,3.40
2019-02-24T16:12:45.016Z,5.03
2019-02-24T16:15:15.294Z,2.63
2019-02-24T16:17:44.728Z,2.53
2019-02-24T16:20:16.484Z,3.07
2019-02-24T16:22:45.838Z,4.40
2019-02-24T16:25:15.215Z,2.33
2019-02-24T16:27:44.802Z,2.77
2019-02-24T16:30:14.347Z,3.50
2019-02-24T16:32:44.009Z,2.53
2019-02-24T16:35:13.992Z,2.83
2019-02-24T16:37:43.335Z,3.23
2019-02-24T16:40:14.775Z,3.00
2019-02-24T16:42:44.218Z,5.93
2019-02-24T16:45:13.819Z,3.70
2019-02-24T16:47:43.155Z,5.43
2019-02-24T16:50:13.665Z,3.80
2019-02-24T16:52:43.054Z,3.77
2019-02-24T16:55:13.145Z,4.13
2019-02-24T16:57:42.685Z,3.67
2019-02-24T17:00:14.810Z,3.87
2019-02-24T17:02:44.191Z,6.60
2019-02-24T17:05:13.722Z,3.17
2019-02-24T17:07:43.098Z,5.23
2019-02-24T17:10:13.576Z,9.93
2019-02-24T17:12:42.976Z,3.80
2019-02-24T17:15:12.353Z,5.37
2019-02-24T17:17:41.719Z,3.50
2019-02-24T17:20:12.711Z,3.73
2019-02-24T17:22:42.057Z,5.43
2019-02-24T17:25:11.513Z,6.40
2019-02-24T17:27:40.930Z,7.83
2019-02-24T17:30:11.371Z,10.60
2019-02-24T17:32:40.706Z,18.97
2019-02-24T17:35:10.248Z,11.77
2019-02-24T17:37:39.589Z,8.70
2019-02-24T17:40:10.456Z,5.73
2019-02-24T17:42:39.800Z,10.70
2019-02-24T17:45:10.669Z,10.57
2019-02-24T17:47:40.037Z,14.60
2019-02-24T17:50:10.976Z,18.27
2019-02-24T17:52:40.367Z,11.93
2019-02-24T17:55:10.632Z,11.53
2019-02-24T17:57:39.986Z,12.10
2019-02-24T18:00:15.348Z,9.97
2019-02-24T18:02:44.708Z,11.23
2019-02-24T18:05:14.128Z,6.60
2019-02-24T18:07:43.553Z,6.87
2019-02-24T18:10:12.896Z,7.87
2019-02-24T18:12:42.291Z,14.93
2019-02-24T18:15:11.826Z,11.50
2019-02-24T18:17:41.181Z,13.43
2019-02-24T18:20:11.294Z,13.33
2019-02-24T18:22:40.723Z,9.90
2019-02-24T18:25:11.396Z,8.90
2019-02-24T18:27:40.877Z,11.90
2019-02-24T18:30:13.171Z,12.73
2019-02-24T18:32:42.620Z,14.80
2019-02-24T18:35:11.960Z,16.80
2019-02-24T18:37:41.325Z,10.47
2019-02-24T18:40:11.372Z,11.40
2019-02-24T18:42:40.803Z,14.67
2019-02-24T18:45:10.653Z,15.17
2019-02-24T18:47:40.017Z,13.87
2019-02-24T18:50:10.178Z,11.80
2019-02-24T18:52:39.597Z,11.60
2019-02-24T18:55:09.274Z,15.13
2019-02-24T18:57:38.715Z,19.63
2019-02-24T19:00:09.485Z,17.03
2019-02-24T19:02:38.916Z,9.60
2019-02-24T19:05:08.946Z,10.77
2019-02-24T19:07:38.335Z,8.53
2019-02-24T19:10:08.985Z,11.33
2019-02-24T19:12:38.328Z,15.30
2019-02-24T19:15:09.772Z,11.47
2019-02-24T19:17:39.168Z,9.93
2019-02-24T19:20:09.425Z,9.53
2019-02-24T19:22:38.738Z,9.40
2019-02-24T19:25:08.608Z,9.77
2019-02-24T19:27:37.960Z,8.87
2019-02-24T19:30:08.296Z,11.43
2019-02-24T19:32:37.745Z,9.43
2019-02-24T19:35:07.901Z,8.87
2019-02-24T19:37:37.265Z,11.57
2019-02-24T19:40:07.975Z,9.67
2019-02-24T19:42:37.360Z,11.30
2019-02-24T19:45:07.338Z,11.33
2019-02-24T19:47:36.717Z,12.50
2019-02-24T19:50:07.356Z,9.53
2019-02-24T19:52:36.751Z,11.60
2019-02-24T19:55:06.241Z,11.27
2019-02-24T19:57:35.572Z,11.93
2019-02-24T20:00:06.096Z,14.83
2019-02-24T20:02:35.487Z,11.50
2019-02-24T20:05:05.280Z,16.00
2019-02-24T20:07:34.875Z,20.93
2019-02-24T20:10:04.559Z,20.17
2019-02-24T20:12:34.129Z,18.63
2019-02-24T20:15:03.603Z,15.50
2019-02-24T20:17:32.908Z,16.57
2019-02-24T20:20:02.358Z,13.43
2019-02-24T20:22:31.740Z,18.67
2019-02-24T20:25:01.143Z,16.40
2019-02-24T20:27:30.552Z,17.87
2019-02-24T20:30:00.045Z,17.00
2019-02-24T20:32:29.449Z,19.83
2019-02-24T20:34:58.800Z,15.00
2019-02-24T20:37:28.251Z,14.37
2019-02-24T20:39:58.132Z,16.70
2019-02-24T20:42:27.539Z,15.23
2019-02-24T20:44:56.946Z,17.50
2019-02-24T20:47:26.370Z,18.67
2019-02-24T20:49:55.822Z,21.90
2019-02-24T20:52:25.261Z,13.30
2019-02-24T20:54:54.577Z,20.13
2019-02-24T20:57:23.936Z,19.03
2019-02-24T20:59:53.397Z,21.67
2019-02-24T21:02:22.784Z,18.53
2019-02-24T21:04:52.199Z,17.00
2019-02-24T21:07:21.616Z,17.17
2019-02-24T21:09:51.010Z,16.40
2019-02-24T21:12:20.544Z,15.00
2019-02-24T21:14:50.103Z,11.60
2019-02-24T21:17:19.529Z,10.33
2019-02-24T21:19:48.887Z,11.80
2019-02-24T21:22:18.330Z,12.57
2019-02-24T21:24:47.755Z,12.60
2019-02-24T21:27:17.135Z,12.33
2019-02-24T21:29:46.568Z,10.77
2019-02-24T21:32:16.015Z,13.23
2019-02-24T21:34:45.432Z,10.40
2019-02-24T21:37:14.754Z,10.73
2019-02-24T21:39:44.144Z,10.67
2019-02-24T21:42:13.492Z,9.97
2019-02-24T21:44:42.876Z,11.47
2019-02-24T21:47:12.336Z,8.97
2019-02-24T21:49:41.790Z,9.03
2019-02-24T21:52:11.225Z,9.20
2019-02-24T21:54:40.687Z,7.13
2019-02-24T21:57:10.142Z,10.67
2019-02-24T21:59:39.589Z,9.50
2019-02-24T22:02:09.057Z,8.00
2019-02-24T22:04:38.670Z,13.43
2019-02-24T22:07:08.119Z,11.67
2019-02-24T22:09:37.504Z,7.73
2019-02-24T22:12:06.959Z,6.97
2019-02-24T22:14:36.446Z,8.77
2019-02-24T22:17:05.837Z,9.70
2019-02-24T22:19:35.237Z,10.10
2019-02-24T22:22:04.716Z,9.97
2019-02-24T22:24:34.147Z,9.53
2019-02-24T22:27:03.574Z,10.73
2019-02-24T22:29:33.179Z,10.77
2019-02-24T22:32:03.413Z,11.93
2019-02-24T22:34:32.717Z,7.97
2019-02-24T22:37:02.040Z,9.20
2019-02-24T22:39:31.958Z,8.40
2019-02-24T22:42:01.291Z,10.77
2019-02-24T22:44:30.670Z,8.37
2019-02-24T22:47:00.121Z,9.27
2019-02-24T22:49:29.440Z,9.57
2019-02-24T22:51:58.807Z,8.37
2019-02-24T22:54:28.087Z,10.50
2019-02-24T22:56:57.464Z,11.53
2019-02-24T22:59:27.226Z,8.77
2019-02-24T23:01:56.564Z,9.37
2019-02-24T23:04:26.397Z,9.73
2019-02-24T23:06:55.768Z,19.50
2019-02-24T23:09:25.107Z,19.80
2019-02-24T23:11:54.436Z,20.40
2019-02-24T23:14:23.769Z,20.27
2019-02-24T23:16:53.150Z,16.20
2019-02-24T23:19:22.556Z,13.57
2019-02-24T23:21:51.951Z,15.83
2019-02-24T23:24:21.274Z,15.63
2019-02-24T23:26:50.632Z,14.23
2019-02-24T23:29:19.986Z,11.93
2019-02-24T23:31:49.404Z,11.80
2019-02-24T23:34:18.773Z,8.03
2019-02-24T23:36:48.119Z,11.50
2019-02-24T23:39:18.066Z,10.93
2019-02-24T23:41:47.945Z,6.93
2019-02-24T23:44:17.333Z,10.57
2019-02-24T23:46:46.674Z,10.23
2019-02-24T23:49:16.082Z,10.47
2019-02-24T23:51:45.380Z,9.30
2019-02-24T23:54:14.782Z,9.57
2019-02-24T23:56:44.104Z,9.60
2019-02-24T23:59:13.466Z,9.60
